createdAt,value
2018-07-01T00:00:27.448Z,11.10
2018-07-01T00:01:27.454Z,11.30
2018-07-01T00:02:27.448Z,15.50
2018-07-01T00:03:27.453Z,43.80
2018-07-01T00:04:27.448Z,15.90
2018-07-01T00:05:27.448Z,13.80
2018-07-01T00:06:27.448Z,9.50
2018-07-01T00:07:27.447Z,3.90
2018-07-01T00:08:27.451Z,21.90
2018-07-01T00:09:27.486Z,16.10
2018-07-01T00:10:27.451Z,7.50
2018-07-01T00:11:27.460Z,6.10
2018-07-01T00:12:27.453Z,6.50
2018-07-01T00:13:27.450Z,12.70
2018-07-01T00:14:27.457Z,10.60
2018-07-01T00:15:27.447Z,42.60
2018-07-01T00:16:27.455Z,42.50
2018-07-01T00:17:27.449Z,11.50
2018-07-01T00:18:27.461Z,38.70
2018-07-01T00:19:27.449Z,22.00
2018-07-01T00:20:27.450Z,30.80
2018-07-01T00:21:27.449Z,38.20
2018-07-01T00:22:27.456Z,99.30
2018-07-01T00:23:27.472Z,35.60
2018-07-01T00:24:27.452Z,39.10
2018-07-01T00:25:27.448Z,31.80
2018-07-01T00:26:27.449Z,13.90
2018-07-01T00:27:27.482Z,11.10
2018-07-01T00:28:27.449Z,15.70
2018-07-01T00:29:27.500Z,11.20
2018-07-01T00:30:27.449Z,3.10
2018-07-01T00:31:27.449Z,3.00
2018-07-01T00:32:27.483Z,5.50
2018-07-01T00:33:27.453Z,6.30
2018-07-01T00:34:27.448Z,36.50
2018-07-01T00:35:27.449Z,31.20
2018-07-01T00:36:27.483Z,92.30
2018-07-01T00:37:27.451Z,45.80
2018-07-01T00:38:27.451Z,23.00
2018-07-01T00:39:27.451Z,13.90
2018-07-01T00:40:27.450Z,10.40
2018-07-01T00:41:27.449Z,3.30
2018-07-01T00:42:27.447Z,10.00
2018-07-01T00:43:27.462Z,8.80
2018-07-01T00:44:27.449Z,6.70
2018-07-01T00:45:27.448Z,13.70
2018-07-01T00:46:27.448Z,8.20
2018-07-01T00:47:27.451Z,4.50
2018-07-01T00:48:27.473Z,4.30
2018-07-01T00:49:27.446Z,2.10
2018-07-01T00:50:27.446Z,1.40
2018-07-01T00:51:27.457Z,4.20
2018-07-01T00:52:27.463Z,9.70
2018-07-01T00:53:27.469Z,20.90
2018-07-01T00:54:27.451Z,13.90
2018-07-01T00:55:27.445Z,11.20
2018-07-01T00:56:27.453Z,9.00
2018-07-01T00:57:27.449Z,5.80
2018-07-01T00:58:27.443Z,4.70
2018-07-01T00:59:27.443Z,3.80
2018-07-01T01:00:27.450Z,2.80
2018-07-01T01:01:27.456Z,9.40
2018-07-01T01:02:27.452Z,23.70
2018-07-01T01:03:27.444Z,23.10
2018-07-01T01:04:27.442Z,11.80
2018-07-01T01:05:27.442Z,7.20
2018-07-01T01:06:27.460Z,14.00
2018-07-01T01:07:27.442Z,66.40
2018-07-01T01:08:27.464Z,17.50
2018-07-01T01:09:27.441Z,16.50
2018-07-01T01:10:27.445Z,30.10
2018-07-01T01:11:27.439Z,11.70
2018-07-01T01:12:27.475Z,11.90
2018-07-01T01:13:27.438Z,4.90
2018-07-01T01:14:27.440Z,4.30
2018-07-01T01:15:27.437Z,18.40
2018-07-01T01:16:27.440Z,12.70
2018-07-01T01:17:27.516Z,8.30
2018-07-01T01:18:27.437Z,10.20
2018-07-01T01:19:27.434Z,7.40
2018-07-01T01:20:27.438Z,5.60
2018-07-01T01:21:27.434Z,8.30
2018-07-01T01:22:27.435Z,4.20
2018-07-01T01:23:27.433Z,15.50
2018-07-01T01:24:27.435Z,20.90
2018-07-01T01:25:27.433Z,19.60
2018-07-01T01:26:27.432Z,9.50
2018-07-01T01:27:27.436Z,14.70
2018-07-01T01:28:27.430Z,17.50
2018-07-01T01:29:27.432Z,25.60
2018-07-01T01:30:27.430Z,23.10
2018-07-01T01:31:27.429Z,14.70
2018-07-01T01:32:27.430Z,7.90
2018-07-01T01:33:27.428Z,4.40
2018-07-01T01:34:27.426Z,5.30
2018-07-01T01:35:27.432Z,7.20
2018-07-01T01:36:27.425Z,5.30
2018-07-01T01:37:27.549Z,12.50
2018-07-01T01:38:27.424Z,14.20
2018-07-01T01:39:27.423Z,5.60
2018-07-01T01:40:27.422Z,11.20
2018-07-01T01:41:27.423Z,3.90
2018-07-01T01:42:27.436Z,2.80
2018-07-01T01:43:27.424Z,3.30
2018-07-01T01:44:27.449Z,7.50
2018-07-01T01:45:28.713Z,9.00
2018-07-01T01:46:27.418Z,5.10
2018-07-01T01:47:27.421Z,9.20
2018-07-01T01:48:27.417Z,5.70
2018-07-01T01:49:27.424Z,18.20
2018-07-01T01:50:27.416Z,9.80
2018-07-01T01:51:27.421Z,13.20
2018-07-01T01:52:27.452Z,64.70
2018-07-01T01:53:27.414Z,26.90
2018-07-01T01:54:27.419Z,9.00
2018-07-01T01:55:27.423Z,9.90
2018-07-01T01:56:27.414Z,9.30
2018-07-01T01:57:27.412Z,2.20
2018-07-01T01:58:27.412Z,5.50
2018-07-01T01:59:27.410Z,8.00
2018-07-01T02:00:27.411Z,10.60
2018-07-01T02:01:27.408Z,1.80
2018-07-01T02:02:27.407Z,1.40
2018-07-01T02:03:27.405Z,5.10
2018-07-01T02:04:27.406Z,2.80
2018-07-01T02:05:27.406Z,2.00
2018-07-01T02:06:27.406Z,2.20
2018-07-01T02:07:27.407Z,4.30
2018-07-01T02:08:27.404Z,3.50
2018-07-01T02:09:27.401Z,4.50
2018-07-01T02:10:27.400Z,2.80
2018-07-01T02:11:27.398Z,10.30
2018-07-01T02:12:27.398Z,17.20
2018-07-01T02:13:27.396Z,6.50
2018-07-01T02:14:27.395Z,12.30
2018-07-01T02:15:27.395Z,2.70
2018-07-01T02:16:27.394Z,4.70
2018-07-01T02:17:27.399Z,3.70
2018-07-01T02:18:27.392Z,1.30
2018-07-01T02:19:27.397Z,1.80
2018-07-01T02:20:27.391Z,4.80
2018-07-01T02:21:27.391Z,2.70
2018-07-01T02:22:27.387Z,8.90
2018-07-01T02:23:27.388Z,3.30
2018-07-01T02:24:27.387Z,3.10
2018-07-01T02:25:27.411Z,6.20
2018-07-01T02:26:27.390Z,11.10
2018-07-01T02:27:27.386Z,13.20
2018-07-01T02:28:27.386Z,7.50
2018-07-01T02:29:27.383Z,4.90
2018-07-01T02:30:27.381Z,3.50
2018-07-01T02:31:27.378Z,6.70
2018-07-01T02:32:27.379Z,6.40
2018-07-01T02:33:27.387Z,8.40
2018-07-01T02:34:27.376Z,8.80
2018-07-01T02:35:27.458Z,11.60
2018-07-01T02:36:27.377Z,4.80
2018-07-01T02:37:27.373Z,1.70
2018-07-01T02:38:27.371Z,2.30
2018-07-01T02:39:27.369Z,2.40
2018-07-01T02:40:27.379Z,2.50
2018-07-01T02:41:27.368Z,2.10
2018-07-01T02:42:27.368Z,1.10
2018-07-01T02:43:27.365Z,2.20
2018-07-01T02:44:27.365Z,1.00
2018-07-01T02:45:27.363Z,2.40
2018-07-01T02:46:27.361Z,2.40
2018-07-01T02:47:27.361Z,3.40
2018-07-01T02:48:27.360Z,7.10
2018-07-01T02:49:27.359Z,1.30
2018-07-01T02:50:27.359Z,1.30
2018-07-01T02:51:27.360Z,2.40
2018-07-01T02:52:27.356Z,1.50
2018-07-01T02:53:27.354Z,0.70
2018-07-01T02:54:27.352Z,1.00
2018-07-01T02:55:27.356Z,2.00
2018-07-01T02:56:27.352Z,4.60
2018-07-01T02:57:27.352Z,2.60
2018-07-01T02:58:27.346Z,1.00
2018-07-01T02:59:27.350Z,3.50
2018-07-01T03:00:27.401Z,2.40
2018-07-01T03:01:27.344Z,2.30
2018-07-01T03:02:27.342Z,0.80
2018-07-01T03:03:27.340Z,2.40
2018-07-01T03:04:27.341Z,1.50
2018-07-01T03:05:27.346Z,2.70
2018-07-01T03:06:27.345Z,2.10
2018-07-01T03:07:27.336Z,0.80
2018-07-01T03:08:27.338Z,1.80
2018-07-01T03:09:27.342Z,1.30
2018-07-01T03:10:27.331Z,2.50
2018-07-01T03:11:27.331Z,1.20
2018-07-01T03:12:27.329Z,1.20
2018-07-01T03:13:27.335Z,0.90
2018-07-01T03:14:27.329Z,1.70
2018-07-01T03:15:27.325Z,2.80
2018-07-01T03:16:27.332Z,2.10
2018-07-01T03:17:27.324Z,1.10
2018-07-01T03:18:42.118Z,2.30
2018-07-01T03:19:27.320Z,1.50
2018-07-01T03:20:27.318Z,1.50
2018-07-01T03:21:27.317Z,1.30
2018-07-01T03:22:27.316Z,0.80
2018-07-01T03:23:27.313Z,1.00
2018-07-01T03:24:27.312Z,2.80
2018-07-01T03:25:27.314Z,1.90
2018-07-01T03:26:27.310Z,1.00
2018-07-01T03:27:27.310Z,1.10
2018-07-01T03:28:27.305Z,0.70
2018-07-01T03:29:27.306Z,0.80
2018-07-01T03:30:27.307Z,1.70
2018-07-01T03:31:27.301Z,3.30
2018-07-01T03:32:27.301Z,2.20
2018-07-01T03:33:27.298Z,1.10
2018-07-01T03:34:27.297Z,1.70
2018-07-01T03:35:27.295Z,2.40
2018-07-01T03:36:27.294Z,0.80
2018-07-01T03:37:27.293Z,1.20
2018-07-01T03:38:27.290Z,1.60
2018-07-01T03:39:27.289Z,3.30
2018-07-01T03:40:27.287Z,3.80
2018-07-01T03:41:27.291Z,0.90
2018-07-01T03:42:27.286Z,1.50
2018-07-01T03:43:27.284Z,0.90
2018-07-01T03:44:27.282Z,1.80
2018-07-01T03:45:27.279Z,0.80
2018-07-01T03:46:27.278Z,1.60
2018-07-01T03:47:27.278Z,2.00
2018-07-01T03:48:27.274Z,2.90
2018-07-01T03:49:27.277Z,2.20
2018-07-01T03:50:27.271Z,3.80
2018-07-01T03:51:27.270Z,1.80
2018-07-01T03:52:27.288Z,4.10
2018-07-01T03:53:27.596Z,2.50
2018-07-01T03:54:27.267Z,1.00
2018-07-01T03:55:27.264Z,1.40
2018-07-01T03:56:27.279Z,2.70
2018-07-01T03:57:27.261Z,2.30
2018-07-01T03:58:27.260Z,2.20
2018-07-01T03:59:27.314Z,1.90
2018-07-01T04:00:27.315Z,1.70
2018-07-01T04:01:27.257Z,1.80
2018-07-01T04:02:27.256Z,0.90
2018-07-01T04:03:27.252Z,1.40
2018-07-01T04:04:27.252Z,1.10
2018-07-01T04:05:27.251Z,1.50
2018-07-01T04:06:27.250Z,0.70
2018-07-01T04:07:27.247Z,11.10
2018-07-01T04:08:27.249Z,1.30
2018-07-01T04:09:27.248Z,0.90
2018-07-01T04:10:27.244Z,2.90
2018-07-01T04:11:27.242Z,2.20
2018-07-01T04:12:27.244Z,2.50
2018-07-01T04:13:27.241Z,1.70
2018-07-01T04:14:27.239Z,1.70
2018-07-01T04:15:27.241Z,2.10
2018-07-01T04:16:27.243Z,1.30
2018-07-01T04:17:27.235Z,3.20
2018-07-01T04:18:27.236Z,1.30
2018-07-01T04:19:27.231Z,1.20
2018-07-01T04:20:27.232Z,2.20
2018-07-01T04:21:27.231Z,2.00
2018-07-01T04:22:27.229Z,3.10
2018-07-01T04:23:27.229Z,1.10
2018-07-01T04:24:27.226Z,2.00
2018-07-01T04:25:27.228Z,0.90
2018-07-01T04:26:27.228Z,3.00
2018-07-01T04:27:27.224Z,3.50
2018-07-01T04:28:27.222Z,1.60
2018-07-01T04:29:27.221Z,2.40
2018-07-01T04:30:27.244Z,3.40
2018-07-01T04:31:27.219Z,1.90
2018-07-01T04:32:27.218Z,0.90
2018-07-01T04:33:27.221Z,2.70
2018-07-01T04:34:27.215Z,1.10
2018-07-01T04:35:27.216Z,1.60
2018-07-01T04:36:27.215Z,2.80
2018-07-01T04:37:27.214Z,0.80
2018-07-01T04:38:27.220Z,1.40
2018-07-01T04:39:27.222Z,3.80
2018-07-01T04:40:27.211Z,1.60
2018-07-01T04:41:27.212Z,3.30
2018-07-01T04:42:27.208Z,6.80
2018-07-01T04:43:27.208Z,1.70
2018-07-01T04:44:27.207Z,2.70
2018-07-01T04:45:27.207Z,3.30
2018-07-01T04:46:27.210Z,1.30
2018-07-01T04:47:27.205Z,4.80
2018-07-01T04:48:27.208Z,3.80
2018-07-01T04:49:27.203Z,1.20
2018-07-01T04:50:27.202Z,2.90
2018-07-01T04:51:27.202Z,2.60
2018-07-01T04:52:27.208Z,2.00
2018-07-01T04:53:27.199Z,2.90
2018-07-01T04:54:27.198Z,1.20
2018-07-01T04:55:27.297Z,2.70
2018-07-01T04:56:27.198Z,2.10
2018-07-01T04:57:27.196Z,2.30
2018-07-01T04:58:27.196Z,3.90
2018-07-01T04:59:27.194Z,2.30
2018-07-01T05:00:27.194Z,3.30
2018-07-01T05:01:27.192Z,0.70
2018-07-01T05:02:27.240Z,1.40
2018-07-01T05:03:27.191Z,2.10
2018-07-01T05:04:27.189Z,2.50
2018-07-01T05:05:27.193Z,3.10
2018-07-01T05:06:27.188Z,4.50
2018-07-01T05:07:27.186Z,1.90
2018-07-01T05:08:27.187Z,2.50
2018-07-01T05:09:27.190Z,2.00
2018-07-01T05:10:27.187Z,2.60
2018-07-01T05:11:27.183Z,1.00
2018-07-01T05:12:27.183Z,5.50
2018-07-01T05:13:27.183Z,4.50
2018-07-01T05:14:27.180Z,3.50
2018-07-01T05:15:27.180Z,1.40
2018-07-01T05:16:27.181Z,1.70
2018-07-01T05:17:27.180Z,2.50
2018-07-01T05:18:27.180Z,1.70
2018-07-01T05:19:27.181Z,2.30
2018-07-01T05:20:27.179Z,1.80
2018-07-01T05:21:27.180Z,3.90
2018-07-01T05:22:27.181Z,3.10
2018-07-01T05:23:27.185Z,3.20
2018-07-01T05:24:27.181Z,1.30
2018-07-01T05:25:27.183Z,1.50
2018-07-01T05:26:27.183Z,5.30
2018-07-01T05:27:27.185Z,1.40
2018-07-01T05:28:27.198Z,4.20
2018-07-01T05:29:27.189Z,1.80
2018-07-01T05:30:27.186Z,1.30
2018-07-01T05:31:27.189Z,6.90
2018-07-01T05:32:27.193Z,2.30
2018-07-01T05:33:27.192Z,3.80
2018-07-01T05:34:27.190Z,2.90
2018-07-01T05:35:27.192Z,1.00
2018-07-01T05:36:27.194Z,0.80
2018-07-01T05:37:27.201Z,1.70
2018-07-01T05:38:27.207Z,0.80
2018-07-01T05:39:27.198Z,2.40
2018-07-01T05:40:27.203Z,1.70
2018-07-01T05:41:27.206Z,3.20
2018-07-01T05:42:27.203Z,1.80
2018-07-01T05:43:27.206Z,0.90
2018-07-01T05:44:27.208Z,1.50
2018-07-01T05:45:27.211Z,3.40
2018-07-01T05:46:27.211Z,1.50
2018-07-01T05:47:27.215Z,2.50
2018-07-01T05:48:27.216Z,2.30
2018-07-01T05:49:27.254Z,3.50
2018-07-01T05:50:27.217Z,0.70
2018-07-01T05:51:27.220Z,2.40
2018-07-01T05:52:27.220Z,1.20
2018-07-01T05:53:27.229Z,4.40
2018-07-01T05:54:27.222Z,1.00
2018-07-01T05:55:27.224Z,1.30
2018-07-01T05:56:27.228Z,0.80
2018-07-01T05:57:27.228Z,1.20
2018-07-01T05:58:27.240Z,2.50
2018-07-01T05:59:27.230Z,1.40
2018-07-01T06:00:27.233Z,1.80
2018-07-01T06:01:27.233Z,0.80
2018-07-01T06:02:27.233Z,2.30
2018-07-01T06:03:27.236Z,0.90
2018-07-01T06:04:27.238Z,1.20
2018-07-01T06:05:27.244Z,2.20
2018-07-01T06:06:27.239Z,3.20
2018-07-01T06:07:27.250Z,3.80
2018-07-01T06:08:27.243Z,0.80
2018-07-01T06:09:27.266Z,2.50
2018-07-01T06:10:27.245Z,2.60
2018-07-01T06:11:27.246Z,2.20
2018-07-01T06:12:27.251Z,1.50
2018-07-01T06:13:27.249Z,1.00
2018-07-01T06:14:27.253Z,1.10
2018-07-01T06:15:27.255Z,3.00
2018-07-01T06:16:27.273Z,1.90
2018-07-01T06:17:27.255Z,1.80
2018-07-01T06:18:27.255Z,3.10
2018-07-01T06:19:27.257Z,3.10
2018-07-01T06:20:27.259Z,0.90
2018-07-01T06:21:27.260Z,1.40
2018-07-01T06:22:27.262Z,1.70
2018-07-01T06:23:27.262Z,2.50
2018-07-01T06:24:27.311Z,2.30
2018-07-01T06:25:27.271Z,1.60
2018-07-01T06:26:27.270Z,2.10
2018-07-01T06:27:27.276Z,2.30
2018-07-01T06:28:27.272Z,0.80
2018-07-01T06:29:27.278Z,1.30
2018-07-01T06:30:27.274Z,1.00
2018-07-01T06:31:27.276Z,0.90
2018-07-01T06:32:27.280Z,3.00
2018-07-01T06:33:27.282Z,1.80
2018-07-01T06:34:27.282Z,1.70
2018-07-01T06:35:27.286Z,1.40
2018-07-01T06:36:27.288Z,1.10
2018-07-01T06:37:27.285Z,1.90
2018-07-01T06:38:27.287Z,1.00
2018-07-01T06:39:27.287Z,1.80
2018-07-01T06:40:27.290Z,1.10
2018-07-01T06:41:27.291Z,3.20
2018-07-01T06:42:27.292Z,2.00
2018-07-01T06:43:27.294Z,1.00
2018-07-01T06:44:27.307Z,3.50
2018-07-01T06:45:27.297Z,1.70
2018-07-01T06:46:27.298Z,1.10
2018-07-01T06:47:27.298Z,8.10
2018-07-01T06:48:27.301Z,3.50
2018-07-01T06:49:27.316Z,1.00
2018-07-01T06:50:27.302Z,1.10
2018-07-01T06:51:27.302Z,1.50
2018-07-01T06:52:27.310Z,3.50
2018-07-01T06:53:27.310Z,2.80
2018-07-01T06:54:27.307Z,3.30
2018-07-01T06:55:27.312Z,1.40
2018-07-01T06:56:27.364Z,1.30
2018-07-01T06:57:27.311Z,0.90
2018-07-01T06:58:27.316Z,1.20
2018-07-01T06:59:27.313Z,2.60
2018-07-01T07:00:27.314Z,1.20
2018-07-01T07:01:27.318Z,0.70
2018-07-01T07:02:27.390Z,1.60
2018-07-01T07:03:27.320Z,0.80
2018-07-01T07:04:27.318Z,0.70
2018-07-01T07:05:27.324Z,1.00
2018-07-01T07:06:27.322Z,1.40
2018-07-01T07:07:27.321Z,0.70
2018-07-01T07:08:27.323Z,2.00
2018-07-01T07:09:27.324Z,3.00
2018-07-01T07:10:27.326Z,3.20
2018-07-01T07:11:27.325Z,3.50
2018-07-01T07:12:27.361Z,1.10
2018-07-01T07:13:27.330Z,1.10
2018-07-01T07:14:27.328Z,1.20
2018-07-01T07:15:27.334Z,1.30
2018-07-01T07:16:27.331Z,1.00
2018-07-01T07:17:27.332Z,0.60
2018-07-01T07:18:27.332Z,1.90
2018-07-01T07:19:27.334Z,4.50
2018-07-01T07:20:27.335Z,2.00
2018-07-01T07:21:27.337Z,1.20
2018-07-01T07:22:27.341Z,1.80
2018-07-01T07:23:27.337Z,1.60
2018-07-01T07:24:27.399Z,1.30
2018-07-01T07:25:27.340Z,2.40
2018-07-01T07:26:27.340Z,3.20
2018-07-01T07:27:27.343Z,1.30
2018-07-01T07:28:27.343Z,2.60
2018-07-01T07:29:27.342Z,3.00
2018-07-01T07:30:27.346Z,2.10
2018-07-01T07:31:27.345Z,2.30
2018-07-01T07:32:27.344Z,1.60
2018-07-01T07:33:27.349Z,3.80
2018-07-01T07:34:27.345Z,2.00
2018-07-01T07:35:27.347Z,1.80
2018-07-01T07:36:27.348Z,2.80
2018-07-01T07:37:27.347Z,2.00
2018-07-01T07:38:27.349Z,1.10
2018-07-01T07:39:27.348Z,1.00
2018-07-01T07:40:27.356Z,1.30
2018-07-01T07:41:27.350Z,1.90
2018-07-01T07:42:27.351Z,1.20
2018-07-01T07:43:27.354Z,1.40
2018-07-01T07:44:27.356Z,1.40
2018-07-01T07:45:27.356Z,0.90
2018-07-01T07:46:27.351Z,4.10
2018-07-01T07:47:27.356Z,1.80
2018-07-01T07:48:27.356Z,4.00
2018-07-01T07:49:27.356Z,2.30
2018-07-01T07:50:27.355Z,0.90
2018-07-01T07:51:27.356Z,2.70
2018-07-01T07:52:27.357Z,3.40
2018-07-01T07:53:27.357Z,1.30
2018-07-01T07:54:27.357Z,0.90
2018-07-01T07:55:27.364Z,2.70
2018-07-01T07:56:27.359Z,2.70
2018-07-01T07:57:27.361Z,1.70
2018-07-01T07:58:27.361Z,2.20
2018-07-01T07:59:27.366Z,0.60
2018-07-01T08:00:27.380Z,3.80
2018-07-01T08:01:27.364Z,1.50
2018-07-01T08:02:27.386Z,2.80
2018-07-01T08:03:27.367Z,5.20
2018-07-01T08:04:27.368Z,1.30
2018-07-01T08:05:27.369Z,2.60
2018-07-01T08:06:27.369Z,1.70
2018-07-01T08:07:27.431Z,3.30
2018-07-01T08:08:27.369Z,0.80
2018-07-01T08:09:27.371Z,0.90
2018-07-01T08:10:27.375Z,0.80
2018-07-01T08:11:27.371Z,3.30
2018-07-01T08:12:27.376Z,2.20
2018-07-01T08:13:27.377Z,1.60
2018-07-01T08:14:27.381Z,0.70
2018-07-01T08:15:27.380Z,1.50
2018-07-01T08:16:27.377Z,1.80
2018-07-01T08:17:27.379Z,0.70
2018-07-01T08:18:27.378Z,4.70
2018-07-01T08:19:27.380Z,1.00
2018-07-01T08:20:27.380Z,3.10
2018-07-01T08:21:27.383Z,1.10
2018-07-01T08:22:27.382Z,1.00
2018-07-01T08:23:27.386Z,3.50
2018-07-01T08:24:27.385Z,2.10
2018-07-01T08:25:27.386Z,2.10
2018-07-01T08:26:27.388Z,2.60
2018-07-01T08:27:27.398Z,0.90
2018-07-01T08:28:27.388Z,1.00
2018-07-01T08:29:27.443Z,1.00
2018-07-01T08:30:27.392Z,2.30
2018-07-01T08:31:27.395Z,2.50
2018-07-01T08:32:27.394Z,4.20
2018-07-01T08:33:27.396Z,2.20
2018-07-01T08:34:27.449Z,1.90
2018-07-01T08:35:27.397Z,3.30
2018-07-01T08:36:27.397Z,2.80
2018-07-01T08:37:27.401Z,1.40
2018-07-01T08:38:27.404Z,1.80
2018-07-01T08:39:27.406Z,3.40
2018-07-01T08:40:27.408Z,1.30
2018-07-01T08:41:27.408Z,1.50
2018-07-01T08:42:27.414Z,1.80
2018-07-01T08:43:27.412Z,3.00
2018-07-01T08:44:27.416Z,0.80
2018-07-01T08:45:27.419Z,1.20
2018-07-01T08:46:27.425Z,0.90
2018-07-01T08:47:27.427Z,2.20
2018-07-01T08:48:27.431Z,2.40
2018-07-01T08:49:27.437Z,1.20
2018-07-01T08:50:27.438Z,1.30
2018-07-01T08:51:27.442Z,1.20
2018-07-01T08:52:27.469Z,0.70
2018-07-01T08:53:27.454Z,0.80
2018-07-01T08:54:27.458Z,4.50
2018-07-01T08:55:27.466Z,1.90
2018-07-01T08:56:27.473Z,0.70
2018-07-01T08:57:27.483Z,2.80
2018-07-01T08:58:27.479Z,1.10
2018-07-01T08:59:27.485Z,1.70
2018-07-01T09:00:27.491Z,2.10
2018-07-01T09:01:27.496Z,4.60
2018-07-01T09:02:27.502Z,0.60
2018-07-01T09:03:27.508Z,1.70
2018-07-01T09:04:27.516Z,0.60
2018-07-01T09:05:27.522Z,1.50
2018-07-01T09:06:27.528Z,0.90
2018-07-01T09:07:27.534Z,1.20
2018-07-01T09:08:27.590Z,1.40
2018-07-01T09:09:27.566Z,1.40
2018-07-01T09:10:27.554Z,1.60
2018-07-01T09:11:27.562Z,1.10
2018-07-01T09:12:27.581Z,1.50
2018-07-01T09:13:27.580Z,1.70
2018-07-01T09:14:27.603Z,1.20
2018-07-01T09:15:27.594Z,2.30
2018-07-01T09:16:27.599Z,1.10
2018-07-01T09:17:27.606Z,1.20
2018-07-01T09:18:27.613Z,1.80
2018-07-01T09:19:27.627Z,1.90
2018-07-01T09:20:27.630Z,1.10
2018-07-01T09:21:27.636Z,1.00
2018-07-01T09:22:27.647Z,1.70
2018-07-01T09:23:27.689Z,2.80
2018-07-01T09:24:27.669Z,1.60
2018-07-01T09:25:27.669Z,1.90
2018-07-01T09:26:27.681Z,1.90
2018-07-01T09:27:27.685Z,0.60
2018-07-01T09:28:27.692Z,0.80
2018-07-01T09:29:27.700Z,1.10
2018-07-01T09:30:27.710Z,0.60
2018-07-01T09:31:27.716Z,2.30
2018-07-01T09:32:27.724Z,1.40
2018-07-01T09:33:27.736Z,1.10
2018-07-01T09:34:27.794Z,2.70
2018-07-01T09:35:27.748Z,1.50
2018-07-01T09:36:27.756Z,1.90
2018-07-01T09:37:27.769Z,1.80
2018-07-01T09:38:27.774Z,1.30
2018-07-01T09:39:27.781Z,0.90
2018-07-01T09:40:27.790Z,1.00
2018-07-01T09:41:27.799Z,2.10
2018-07-01T09:42:27.808Z,1.10
2018-07-01T09:43:27.845Z,1.30
2018-07-01T09:44:27.828Z,3.10
2018-07-01T09:45:27.834Z,1.50
2018-07-01T09:46:27.845Z,2.90
2018-07-01T09:47:27.856Z,1.20
2018-07-01T09:48:27.868Z,0.50
2018-07-01T09:49:27.871Z,1.60
2018-07-01T09:50:27.970Z,0.60
2018-07-01T09:51:27.892Z,0.70
2018-07-01T09:52:27.899Z,3.60
2018-07-01T09:53:27.910Z,1.00
2018-07-01T09:54:27.918Z,1.10
2018-07-01T09:55:27.930Z,2.70
2018-07-01T09:56:27.938Z,1.10
2018-07-01T09:57:27.948Z,2.10
2018-07-01T09:58:27.957Z,1.10
2018-07-01T09:59:27.968Z,2.20
2018-07-01T10:00:27.978Z,6.10
2018-07-01T10:01:27.990Z,0.90
2018-07-01T10:02:28.004Z,1.10
2018-07-01T10:03:28.013Z,0.60
2018-07-01T10:04:28.020Z,4.60
2018-07-01T10:05:28.031Z,1.00
2018-07-01T10:06:28.040Z,0.50
2018-07-01T10:07:28.051Z,2.40
2018-07-01T10:08:28.062Z,2.00
2018-07-01T10:09:28.072Z,2.60
2018-07-01T10:10:28.084Z,1.10
2018-07-01T10:11:28.092Z,1.50
2018-07-01T10:12:28.107Z,2.80
2018-07-01T10:13:28.114Z,3.20
2018-07-01T10:14:28.146Z,1.10
2018-07-01T10:15:28.133Z,2.30
2018-07-01T10:16:28.152Z,0.50
2018-07-01T10:17:28.157Z,0.80
2018-07-01T10:18:28.176Z,0.60
2018-07-01T10:19:28.177Z,1.00
2018-07-01T10:20:28.185Z,1.20
2018-07-01T10:21:28.205Z,0.50
2018-07-01T10:22:28.204Z,1.30
2018-07-01T10:23:28.215Z,2.90
2018-07-01T10:24:28.225Z,0.60
2018-07-01T10:25:28.236Z,1.40
2018-07-01T10:26:28.328Z,1.70
2018-07-01T10:27:28.259Z,0.50
2018-07-01T10:28:28.269Z,0.40
2018-07-01T10:29:28.278Z,1.50
2018-07-01T10:30:28.291Z,1.40
2018-07-01T10:31:28.304Z,4.30
2018-07-01T10:32:28.353Z,0.80
2018-07-01T10:33:28.325Z,1.80
2018-07-01T10:34:28.335Z,1.70
2018-07-01T10:35:28.727Z,0.50
2018-07-01T10:36:28.362Z,2.50
2018-07-01T10:37:28.371Z,1.50
2018-07-01T10:38:28.389Z,3.20
2018-07-01T10:39:28.392Z,1.80
2018-07-01T10:40:28.411Z,1.00
2018-07-01T10:41:28.418Z,1.10
2018-07-01T10:42:28.430Z,2.90
2018-07-01T10:43:28.438Z,1.50
2018-07-01T10:44:28.451Z,3.30
2018-07-01T10:45:28.463Z,0.90
2018-07-01T10:46:28.474Z,1.70
2018-07-01T10:47:28.486Z,2.40
2018-07-01T10:48:28.500Z,1.30
2018-07-01T10:49:28.509Z,1.70
2018-07-01T10:50:28.521Z,1.00
2018-07-01T10:51:28.666Z,2.00
2018-07-01T10:52:28.550Z,1.50
2018-07-01T10:53:28.563Z,1.30
2018-07-01T10:54:28.571Z,1.90
2018-07-01T10:55:28.578Z,1.60
2018-07-01T10:56:28.594Z,1.30
2018-07-01T10:57:28.614Z,1.10
2018-07-01T10:58:28.616Z,0.70
2018-07-01T10:59:28.628Z,2.00
2018-07-01T11:00:28.637Z,3.30
2018-07-01T11:01:28.651Z,1.30
2018-07-01T11:02:28.663Z,2.60
2018-07-01T11:03:28.677Z,0.60
2018-07-01T11:04:28.687Z,1.20
2018-07-01T11:05:28.700Z,0.60
2018-07-01T11:06:28.709Z,0.70
2018-07-01T11:07:28.731Z,1.20
2018-07-01T11:08:28.737Z,2.10
2018-07-01T11:09:28.748Z,1.90
2018-07-01T11:10:28.757Z,0.70
2018-07-01T11:11:28.774Z,0.50
2018-07-01T11:12:28.791Z,0.60
2018-07-01T11:13:28.796Z,0.60
2018-07-01T11:14:28.831Z,0.60
2018-07-01T11:15:28.818Z,7.60
2018-07-01T11:16:28.832Z,0.80
2018-07-01T11:17:28.841Z,0.40
2018-07-01T11:18:28.859Z,0.70
2018-07-01T11:19:28.866Z,0.80
2018-07-01T11:20:28.876Z,0.90
2018-07-01T11:21:28.888Z,0.50
2018-07-01T11:22:28.899Z,0.60
2018-07-01T11:23:28.913Z,2.40
2018-07-01T11:24:28.926Z,1.70
2018-07-01T11:25:28.937Z,2.10
2018-07-01T11:26:28.984Z,5.40
2018-07-01T11:27:29.136Z,1.30
2018-07-01T11:28:28.965Z,1.80
2018-07-01T11:29:28.979Z,0.60
2018-07-01T11:30:28.987Z,0.60
2018-07-01T11:31:28.999Z,0.60
2018-07-01T11:32:29.010Z,3.40
2018-07-01T11:33:29.025Z,0.50
2018-07-01T11:34:29.047Z,0.60
2018-07-01T11:35:29.043Z,0.60
2018-07-01T11:36:29.056Z,0.90
2018-07-01T11:37:29.065Z,0.80
2018-07-01T11:38:29.077Z,0.60
2018-07-01T11:39:29.095Z,0.60
2018-07-01T11:40:29.101Z,2.50
2018-07-01T11:41:29.113Z,0.40
2018-07-01T11:42:29.155Z,1.00
2018-07-01T11:43:29.136Z,0.80
2018-07-01T11:44:29.201Z,0.80
2018-07-01T11:45:29.161Z,0.50
2018-07-01T11:46:29.170Z,1.10
2018-07-01T11:47:29.181Z,0.50
2018-07-01T11:48:29.196Z,2.60
2018-07-01T11:49:29.205Z,1.60
2018-07-01T11:50:29.267Z,0.50
2018-07-01T11:51:29.228Z,0.60
2018-07-01T11:52:29.294Z,1.70
2018-07-01T11:53:29.250Z,0.40
2018-07-01T11:54:29.262Z,0.50
2018-07-01T11:55:29.273Z,0.60
2018-07-01T11:56:29.287Z,2.70
2018-07-01T11:57:29.298Z,0.60
2018-07-01T11:58:29.310Z,1.00
2018-07-01T11:59:29.322Z,0.80
2018-07-01T12:00:29.336Z,0.80
2018-07-01T12:01:29.345Z,1.40
2018-07-01T12:02:29.370Z,1.70
2018-07-01T12:03:29.369Z,1.40
2018-07-01T12:04:29.380Z,1.00
2018-07-01T12:05:29.477Z,0.80
2018-07-01T12:06:29.404Z,1.50
2018-07-01T12:07:29.418Z,2.30
2018-07-01T12:08:29.433Z,1.10
2018-07-01T12:09:29.439Z,1.10
2018-07-01T12:10:29.453Z,1.60
2018-07-01T12:11:29.463Z,0.50
2018-07-01T12:12:29.474Z,0.80
2018-07-01T12:13:29.485Z,0.70
2018-07-01T12:14:29.496Z,0.50
2018-07-01T12:15:29.509Z,0.60
2018-07-01T12:16:29.521Z,1.70
2018-07-01T12:17:29.563Z,1.30
2018-07-01T12:18:29.543Z,1.90
2018-07-01T12:19:29.556Z,0.60
2018-07-01T12:20:29.633Z,0.60
2018-07-01T12:21:29.575Z,1.00
2018-07-01T12:22:29.604Z,1.50
2018-07-01T12:23:29.640Z,1.20
2018-07-01T12:24:29.615Z,1.50
2018-07-01T12:25:29.622Z,0.80
2018-07-01T12:26:29.633Z,2.20
2018-07-01T12:27:29.647Z,2.00
2018-07-01T12:28:29.659Z,2.10
2018-07-01T12:29:29.669Z,0.70
2018-07-01T12:30:29.682Z,1.60
2018-07-01T12:31:29.691Z,1.00
2018-07-01T12:32:29.702Z,0.40
2018-07-01T12:33:29.727Z,3.00
2018-07-01T12:34:29.725Z,2.60
2018-07-01T12:35:29.736Z,1.50
2018-07-01T12:36:29.751Z,2.10
2018-07-01T12:37:29.763Z,1.00
2018-07-01T12:38:29.771Z,1.10
2018-07-01T12:39:29.782Z,1.20
2018-07-01T12:40:29.794Z,0.70
2018-07-01T12:41:29.807Z,0.50
2018-07-01T12:42:30.004Z,0.50
2018-07-01T12:43:29.828Z,1.40
2018-07-01T12:44:29.854Z,0.70
2018-07-01T12:45:29.855Z,1.30
2018-07-01T12:46:29.878Z,2.90
2018-07-01T12:47:29.874Z,1.10
2018-07-01T12:48:29.884Z,0.50
2018-07-01T12:49:29.896Z,0.50
2018-07-01T12:50:29.981Z,1.20
2018-07-01T12:51:29.927Z,0.70
2018-07-01T12:52:29.931Z,0.60
2018-07-01T12:53:29.950Z,2.40
2018-07-01T12:54:29.953Z,1.40
2018-07-01T12:55:29.965Z,2.20
2018-07-01T12:56:30.036Z,2.30
2018-07-01T12:57:29.989Z,4.40
2018-07-01T12:58:30.001Z,0.80
2018-07-01T12:59:30.013Z,1.40
2018-07-01T13:00:30.028Z,0.80
2018-07-01T13:01:30.075Z,1.20
2018-07-01T13:02:30.071Z,0.80
2018-07-01T13:03:30.058Z,5.90
2018-07-01T13:04:30.070Z,1.10
2018-07-01T13:05:30.099Z,1.80
2018-07-01T13:06:30.102Z,1.80
2018-07-01T13:07:30.102Z,1.20
2018-07-01T13:08:30.143Z,0.60
2018-07-01T13:09:30.126Z,1.30
2018-07-01T13:10:30.135Z,2.10
2018-07-01T13:11:30.149Z,1.80
2018-07-01T13:12:30.159Z,0.90
2018-07-01T13:13:30.179Z,1.10
2018-07-01T13:14:30.183Z,0.70
2018-07-01T13:15:30.194Z,0.80
2018-07-01T13:16:30.206Z,0.60